createdAt,value
2018-05-13T00:01:14.527Z,37.40
2018-05-13T00:03:42.065Z,37.50
2018-05-13T00:06:10.341Z,36.50
2018-05-13T00:08:38.625Z,36.90
2018-05-13T00:11:06.156Z,37.00
2018-05-13T00:13:33.861Z,38.40
2018-05-13T00:16:01.365Z,39.00
2018-05-13T00:18:28.880Z,38.50
2018-05-13T00:20:56.358Z,39.00
2018-05-13T00:23:23.843Z,39.10
2018-05-13T00:25:51.321Z,38.90
2018-05-13T00:28:19.607Z,38.40
2018-05-13T00:30:47.840Z,37.30
2018-05-13T00:33:15.461Z,37.30
2018-05-13T00:35:42.976Z,38.40
2018-05-13T00:38:10.550Z,38.40
2018-05-13T00:40:38.068Z,37.50
2018-05-13T00:43:05.550Z,37.60
2018-05-13T00:45:33.212Z,37.50
2018-05-13T00:48:00.706Z,38.00
2018-05-13T00:50:28.954Z,38.20
2018-05-13T00:52:56.462Z,38.30
2018-05-13T00:55:23.963Z,38.20
2018-05-13T00:57:51.558Z,38.00
2018-05-13T01:00:19.068Z,37.10
2018-05-13T01:02:46.568Z,37.60
2018-05-13T01:05:14.833Z,37.40
2018-05-13T01:07:43.118Z,37.70
2018-05-13T01:10:11.405Z,36.70
2018-05-13T01:12:38.899Z,36.70
2018-05-13T01:15:06.406Z,37.20
2018-05-13T01:17:33.921Z,36.80
2018-05-13T01:20:01.428Z,37.50
2018-05-13T01:22:29.684Z,37.50
2018-05-13T01:24:57.166Z,37.60
2018-05-13T01:27:25.432Z,36.50
2018-05-13T01:29:53.708Z,37.40
2018-05-13T01:32:21.956Z,38.20
2018-05-13T01:34:49.547Z,37.80
2018-05-13T01:37:17.783Z,36.80
2018-05-13T01:39:45.297Z,36.80
2018-05-13T01:42:12.819Z,37.50
2018-05-13T01:44:40.432Z,37.50
2018-05-13T01:47:07.898Z,37.40
2018-05-13T01:49:36.002Z,37.10
2018-05-13T01:52:03.493Z,37.20
2018-05-13T01:54:31.736Z,37.50
2018-05-13T01:57:00.010Z,37.50
2018-05-13T01:59:27.623Z,37.70
2018-05-13T02:01:55.118Z,37.00
2018-05-13T02:04:22.658Z,37.50
2018-05-13T02:06:50.130Z,37.50
2018-05-13T02:09:17.616Z,37.60
2018-05-13T02:11:45.097Z,38.20
2018-05-13T02:14:13.456Z,37.60
2018-05-13T02:16:41.690Z,37.80
2018-05-13T02:19:09.220Z,37.70
2018-05-13T02:21:36.858Z,37.70
2018-05-13T02:24:04.332Z,37.80
2018-05-13T02:26:31.816Z,38.10
2018-05-13T02:28:59.348Z,37.90
2018-05-13T02:31:26.825Z,38.00
2018-05-13T02:33:54.467Z,37.80
2018-05-13T02:36:21.935Z,37.40
2018-05-13T02:38:49.426Z,37.70
2018-05-13T02:41:16.931Z,37.90
2018-05-13T02:43:45.308Z,37.70
2018-05-13T02:46:13.546Z,37.80
2018-05-13T02:48:41.070Z,37.90
2018-05-13T02:51:08.543Z,38.20
2018-05-13T02:53:36.043Z,37.50
2018-05-13T02:56:04.315Z,37.80
2018-05-13T02:58:31.833Z,37.80
2018-05-13T03:00:59.299Z,37.50
2018-05-13T03:03:26.767Z,37.30
2018-05-13T03:05:54.261Z,37.70
2018-05-13T03:08:22.520Z,37.80
2018-05-13T03:10:50.037Z,37.80
2018-05-13T03:13:17.528Z,37.80
2018-05-13T03:15:45.046Z,37.90
2018-05-13T03:18:12.528Z,37.80
2018-05-13T03:20:40.117Z,37.70
2018-05-13T03:23:07.611Z,37.50
2018-05-13T03:25:35.118Z,37.80
2018-05-13T03:28:02.715Z,37.60
2018-05-13T03:30:31.104Z,37.80
2018-05-13T03:32:58.591Z,37.80
2018-05-13T03:35:26.105Z,37.80
2018-05-13T03:37:54.373Z,37.40
2018-05-13T03:40:22.789Z,37.60
2018-05-13T03:42:50.309Z,37.60
2018-05-13T03:45:18.543Z,37.60
2018-05-13T03:47:46.093Z,37.70
2018-05-13T03:50:13.573Z,37.70
2018-05-13T03:52:41.065Z,37.50
2018-05-13T03:55:08.711Z,37.40
2018-05-13T03:57:36.214Z,37.70
2018-05-13T04:00:03.691Z,38.00
2018-05-13T04:02:31.830Z,37.80
2018-05-13T04:05:00.073Z,37.50
2018-05-13T04:07:27.575Z,37.50
2018-05-13T04:10:06.913Z,37.70
2018-05-13T04:12:54.992Z,37.90
2018-05-13T04:15:24.294Z,37.80
2018-05-13T04:17:51.765Z,37.50
2018-05-13T04:20:19.271Z,37.80
2018-05-13T04:22:46.746Z,37.70
2018-05-13T04:25:14.266Z,37.90
2018-05-13T04:27:42.506Z,38.00
2018-05-13T04:30:09.996Z,38.10
2018-05-13T04:32:38.375Z,37.60
2018-05-13T04:35:06.611Z,38.00
2018-05-13T04:37:34.131Z,38.00
2018-05-13T04:40:01.636Z,38.60
2018-05-13T04:42:29.157Z,37.10
2018-05-13T04:44:56.702Z,37.20
2018-05-13T04:47:24.242Z,37.50
2018-05-13T04:49:52.527Z,37.70
2018-05-13T04:52:20.071Z,37.70
2018-05-13T04:54:48.355Z,37.90
2018-05-13T04:57:16.607Z,37.40
2018-05-13T04:59:44.195Z,37.50
2018-05-13T05:02:11.749Z,37.60
2018-05-13T05:04:39.409Z,37.70
2018-05-13T05:07:07.659Z,37.70
2018-05-13T05:09:35.163Z,37.80
2018-05-13T05:12:02.677Z,37.70
2018-05-13T05:14:30.186Z,37.80
2018-05-13T05:16:57.685Z,37.70
2018-05-13T05:19:25.153Z,37.80
2018-05-13T05:21:52.639Z,37.80
2018-05-13T05:24:20.111Z,37.70
2018-05-13T05:26:47.826Z,38.80
2018-05-13T05:29:15.329Z,38.60
2018-05-13T05:31:42.793Z,38.70
2018-05-13T05:34:10.279Z,39.20
2018-05-13T05:36:37.761Z,39.60
2018-05-13T05:39:06.171Z,39.70
2018-05-13T05:41:34.427Z,39.50
2018-05-13T05:44:02.704Z,39.40
2018-05-13T05:46:30.965Z,39.30
2018-05-13T05:48:58.451Z,39.20
2018-05-13T05:51:25.949Z,39.80
2018-05-13T05:53:53.471Z,40.30
2018-05-13T05:56:21.009Z,40.60
2018-05-13T05:58:49.936Z,40.90
2018-05-13T06:01:17.475Z,40.90
2018-05-13T06:03:45.736Z,40.10
2018-05-13T06:06:13.270Z,40.10
2018-05-13T06:08:40.872Z,39.80
2018-05-13T06:11:09.146Z,39.60
2018-05-13T06:13:37.390Z,39.80
2018-05-13T06:16:04.913Z,39.80
2018-05-13T06:18:32.422Z,40.00
2018-05-13T06:21:00.671Z,39.40
2018-05-13T06:23:28.164Z,39.40
2018-05-13T06:25:56.457Z,40.10
2018-05-13T06:28:23.976Z,40.00
2018-05-13T06:30:51.472Z,39.70
2018-05-13T06:33:19.012Z,39.30
2018-05-13T06:35:47.285Z,38.60
2018-05-13T06:38:14.872Z,38.60
2018-05-13T06:40:42.384Z,39.40
2018-05-13T06:43:09.968Z,39.30
2018-05-13T06:45:38.268Z,39.90
2018-05-13T06:48:05.785Z,39.80
2018-05-13T06:50:33.275Z,39.90
2018-05-13T06:53:00.772Z,41.70
2018-05-13T06:55:28.278Z,41.00
2018-05-13T06:57:58.414Z,41.50
2018-05-13T07:00:25.971Z,41.50
2018-05-13T07:02:53.558Z,41.40
2018-05-13T07:05:21.893Z,41.30
2018-05-13T07:07:50.180Z,41.00
2018-05-13T07:10:17.818Z,41.00
2018-05-13T07:12:45.327Z,40.30
2018-05-13T07:15:12.856Z,40.30
2018-05-13T07:17:41.141Z,40.00
2018-05-13T07:20:08.627Z,40.10
2018-05-13T07:22:36.143Z,40.10
2018-05-13T07:25:04.399Z,39.50
2018-05-13T07:27:31.905Z,39.60
2018-05-13T07:29:59.479Z,39.30
2018-05-13T07:32:26.999Z,39.80
2018-05-13T07:34:55.339Z,39.40
2018-05-13T07:37:22.805Z,39.40
2018-05-13T07:39:50.397Z,39.30
2018-05-13T07:42:17.955Z,39.40
2018-05-13T07:44:45.460Z,39.10
2018-05-13T07:47:13.041Z,39.30
2018-05-13T07:49:40.740Z,39.20
2018-05-13T07:52:08.257Z,39.60
2018-05-13T07:54:35.726Z,39.40
2018-05-13T07:57:04.016Z,39.70
2018-05-13T07:59:32.281Z,39.00
2018-05-13T08:01:59.800Z,39.00
2018-05-13T08:04:27.323Z,38.80
2018-05-13T08:06:54.790Z,39.30
2018-05-13T08:09:22.329Z,38.80
2018-05-13T08:11:50.752Z,39.00
2018-05-13T08:14:18.249Z,39.00
2018-05-13T08:16:45.767Z,38.50
2018-05-13T08:19:13.276Z,38.50
2018-05-13T08:21:40.795Z,38.60
2018-05-13T08:24:08.325Z,38.80
2018-05-13T08:26:35.822Z,39.20
2018-05-13T08:29:03.309Z,39.10
2018-05-13T08:31:31.585Z,38.80
2018-05-13T08:33:59.841Z,38.00
2018-05-13T08:36:27.345Z,38.00
2018-05-13T08:38:54.829Z,38.00
2018-05-13T08:41:22.405Z,38.80
2018-05-13T08:43:49.869Z,38.20
2018-05-13T08:46:17.397Z,39.00
2018-05-13T08:48:44.897Z,38.40
2018-05-13T08:51:12.456Z,37.70
2018-05-13T08:53:39.935Z,37.50
2018-05-13T08:56:08.218Z,38.30
2018-05-13T08:58:35.721Z,38.40
2018-05-13T09:01:03.229Z,38.20
2018-05-13T09:03:31.519Z,38.40
2018-05-13T09:05:59.024Z,38.40
2018-05-13T09:08:27.377Z,38.20
2018-05-13T09:10:54.926Z,37.80
2018-05-13T09:13:22.445Z,37.90
2018-05-13T09:15:50.703Z,37.40
2018-05-13T09:18:18.197Z,37.40
2018-05-13T09:20:45.724Z,37.50
2018-05-13T09:23:13.239Z,38.80
2018-05-13T09:25:40.761Z,39.40
2018-05-13T09:28:09.016Z,38.10
2018-05-13T09:30:36.526Z,38.30
2018-05-13T09:33:04.117Z,38.00
2018-05-13T09:35:31.519Z,36.60
2018-05-13T09:37:59.058Z,36.60
2018-05-13T09:40:26.660Z,36.60
2018-05-13T09:42:54.179Z,36.60
2018-05-13T09:45:22.418Z,36.60
2018-05-13T09:47:49.935Z,36.60
2018-05-13T09:50:17.420Z,36.60
2018-05-13T09:52:44.937Z,36.60
2018-05-13T09:55:13.212Z,36.60
2018-05-13T09:57:41.506Z,36.60
2018-05-13T10:00:09.077Z,36.60
2018-05-13T10:02:36.606Z,36.60
2018-05-13T10:05:04.901Z,36.60
2018-05-13T10:07:32.428Z,37.30
2018-05-13T10:10:00.846Z,36.20
2018-05-13T10:12:28.345Z,36.50
2018-05-13T10:14:55.852Z,36.60
2018-05-13T10:17:23.352Z,36.60
2018-05-13T10:19:50.831Z,36.10
2018-05-13T10:22:18.367Z,36.10
2018-05-13T10:24:45.982Z,36.00
2018-05-13T10:27:13.489Z,36.00
2018-05-13T10:29:41.008Z,36.20
2018-05-13T10:32:08.491Z,36.60
2018-05-13T10:34:36.139Z,35.90
2018-05-13T10:37:03.790Z,35.60
2018-05-13T10:39:31.314Z,35.90
2018-05-13T10:41:59.694Z,35.60
2018-05-13T10:44:27.963Z,35.50
2018-05-13T10:46:55.468Z,35.60
2018-05-13T10:49:22.936Z,35.40
2018-05-13T10:51:50.446Z,35.30
2018-05-13T10:54:18.706Z,35.30
2018-05-13T10:56:46.232Z,35.30
2018-05-13T10:59:13.732Z,35.00
2018-05-13T11:01:42.030Z,35.00
2018-05-13T11:04:10.282Z,35.20
2018-05-13T11:06:39.271Z,34.80
2018-05-13T11:09:06.762Z,34.80
2018-05-13T11:11:34.242Z,35.00
2018-05-13T11:14:01.752Z,34.60
2018-05-13T11:16:30.029Z,33.80
2018-05-13T11:18:58.354Z,33.80
2018-05-13T11:21:25.844Z,33.80
2018-05-13T11:23:53.425Z,33.90
2018-05-13T11:26:21.707Z,33.40
2018-05-13T11:28:50.009Z,33.40
2018-05-13T11:31:17.517Z,33.50
2018-05-13T11:33:45.053Z,33.70
2018-05-13T11:36:12.550Z,33.70
2018-05-13T11:38:40.812Z,33.80
2018-05-13T11:41:08.337Z,33.80
2018-05-13T11:43:35.846Z,33.70
2018-05-13T11:46:03.358Z,33.70
2018-05-13T11:48:30.860Z,33.70
2018-05-13T11:50:59.128Z,34.20
2018-05-13T11:53:27.427Z,34.10
2018-05-13T11:55:54.899Z,34.10
2018-05-13T11:58:22.400Z,34.30
2018-05-13T12:00:49.880Z,34.40
2018-05-13T12:03:18.160Z,34.00
2018-05-13T12:05:46.433Z,34.60
2018-05-13T12:08:14.719Z,35.00
2018-05-13T12:10:42.957Z,34.60
2018-05-13T12:13:10.516Z,34.60
2018-05-13T12:15:38.699Z,35.20
2018-05-13T12:18:06.202Z,35.20
2018-05-13T12:20:33.702Z,35.60
2018-05-13T12:23:01.202Z,35.90
2018-05-13T12:25:28.719Z,35.20
2018-05-13T12:27:56.394Z,35.00
2018-05-13T12:30:23.912Z,35.50
2018-05-13T12:32:51.427Z,35.80
2018-05-13T12:35:19.747Z,36.50
2018-05-13T12:37:47.250Z,36.50
2018-05-13T12:40:14.754Z,35.70
2018-05-13T12:42:42.237Z,36.60
2018-05-13T12:45:09.753Z,36.60
2018-05-13T12:47:37.316Z,35.30
2018-05-13T12:50:04.821Z,35.70
2018-05-13T12:52:32.321Z,35.70
2018-05-13T12:54:59.838Z,35.90
2018-05-13T12:57:27.332Z,36.00
2018-05-13T12:59:55.572Z,36.70
2018-05-13T13:02:23.202Z,36.70
2018-05-13T13:04:50.726Z,35.50
2018-05-13T13:07:19.019Z,35.70
2018-05-13T13:09:46.532Z,35.80
2018-05-13T13:12:13.990Z,36.00
2018-05-13T13:14:41.499Z,35.60
2018-05-13T13:17:09.006Z,35.50
2018-05-13T13:19:37.990Z,34.70
2018-05-13T13:22:05.662Z,34.70
2018-05-13T13:24:33.125Z,33.70
2018-05-13T13:27:00.701Z,33.80
2018-05-13T13:29:29.008Z,34.30
2018-05-13T13:31:56.499Z,34.30
2018-05-13T13:34:23.989Z,34.20
2018-05-13T13:36:51.503Z,34.20
2018-05-13T13:39:18.989Z,33.90
2018-05-13T13:41:47.415Z,34.00
2018-05-13T13:44:14.927Z,34.20
2018-05-13T13:46:43.211Z,34.70
2018-05-13T13:49:11.465Z,34.70
2018-05-13T13:51:39.753Z,34.80
2018-05-13T13:54:08.031Z,34.50
2018-05-13T13:56:36.257Z,34.90
2018-05-13T13:59:03.759Z,34.80
2018-05-13T14:01:32.047Z,34.70
2018-05-13T14:04:00.413Z,34.40
2018-05-13T14:06:28.748Z,34.60
2018-05-13T14:08:56.973Z,34.90
2018-05-13T14:11:25.251Z,35.00
2018-05-13T14:13:53.540Z,34.50
2018-05-13T14:16:21.030Z,34.50
2018-05-13T14:18:48.590Z,34.70
2018-05-13T14:21:16.892Z,35.20
2018-05-13T14:23:44.405Z,34.80
2018-05-13T14:26:11.931Z,35.10
2018-05-13T14:28:40.188Z,34.90
2018-05-13T14:31:08.449Z,35.30
2018-05-13T14:33:35.999Z,35.30
2018-05-13T14:36:04.271Z,34.70
2018-05-13T14:38:31.761Z,34.70
2018-05-13T14:41:00.066Z,36.10
2018-05-13T14:43:27.557Z,36.30
2018-05-13T14:45:55.071Z,35.20
2018-05-13T14:48:22.567Z,35.30
2018-05-13T14:50:50.170Z,35.50
2018-05-13T14:53:18.443Z,35.30
2018-05-13T14:55:45.928Z,35.30
2018-05-13T14:58:13.469Z,35.60
2018-05-13T15:00:41.028Z,35.60
2018-05-13T15:03:08.528Z,35.80
2018-05-13T15:05:36.049Z,36.20
2018-05-13T15:08:03.548Z,36.50
2018-05-13T15:10:31.091Z,36.50
2018-05-13T15:12:58.585Z,36.70
2018-05-13T15:15:26.119Z,36.80
2018-05-13T15:17:53.590Z,36.80
2018-05-13T15:20:21.098Z,36.80
2018-05-13T15:22:48.619Z,36.80
2018-05-13T15:25:16.867Z,36.80
2018-05-13T15:27:44.410Z,36.80
2018-05-13T15:30:11.910Z,36.80
2018-05-13T15:32:40.182Z,38.50
2018-05-13T15:35:08.460Z,38.30
2018-05-13T15:37:36.810Z,37.90
2018-05-13T15:40:04.225Z,38.00
2018-05-13T15:42:31.788Z,38.20
2018-05-13T15:44:59.342Z,39.00
2018-05-13T15:47:26.848Z,38.40
2018-05-13T15:49:54.432Z,39.50
2018-05-13T15:52:22.691Z,39.30
2018-05-13T15:54:50.189Z,39.30
2018-05-13T15:57:17.680Z,39.90
2018-05-13T15:59:45.162Z,39.30
2018-05-13T16:02:13.458Z,38.50
2018-05-13T16:04:41.024Z,38.50
2018-05-13T16:07:08.540Z,39.50
2018-05-13T16:09:36.109Z,39.50
2018-05-13T16:12:04.413Z,38.90
2018-05-13T16:14:31.904Z,38.80
2018-05-13T16:16:59.380Z,39.50
2018-05-13T16:19:26.925Z,39.80
2018-05-13T16:21:54.431Z,39.20
2018-05-13T16:24:22.713Z,39.70
2018-05-13T16:26:50.218Z,39.80
2018-05-13T16:29:17.711Z,39.80
2018-05-13T16:31:45.965Z,39.00
2018-05-13T16:34:13.463Z,39.10
2018-05-13T16:36:41.064Z,39.20
2018-05-13T16:39:08.664Z,39.20
2018-05-13T16:41:36.973Z,39.00
2018-05-13T16:44:04.484Z,38.90
2018-05-13T16:46:32.019Z,38.70
2018-05-13T16:48:59.524Z,38.50
2018-05-13T16:51:27.909Z,37.50
2018-05-13T16:53:55.404Z,37.50
2018-05-13T16:56:23.055Z,38.00
2018-05-13T16:58:50.578Z,38.70
2018-05-13T17:01:18.099Z,39.00
2018-05-13T17:03:45.716Z,39.30
2018-05-13T17:06:13.258Z,39.00
2018-05-13T17:08:40.796Z,39.00
2018-05-13T17:11:09.064Z,38.60
2018-05-13T17:13:36.540Z,38.70
2018-05-13T17:16:04.822Z,40.00
2018-05-13T17:18:32.310Z,40.00
2018-05-13T17:20:59.836Z,39.90
2018-05-13T17:23:28.139Z,39.90
2018-05-13T17:25:55.669Z,39.90
2018-05-13T17:28:23.917Z,40.40
2018-05-13T17:30:52.950Z,40.10
2018-05-13T17:33:20.416Z,40.10
2018-05-13T17:35:47.913Z,40.00
2018-05-13T17:38:15.425Z,40.30
2018-05-13T17:40:43.288Z,40.20
2018-05-13T17:43:10.829Z,40.40
2018-05-13T17:45:39.239Z,40.40
2018-05-13T17:48:06.730Z,40.40
2018-05-13T17:50:34.258Z,40.40
2018-05-13T17:53:01.741Z,40.00
2018-05-13T17:55:29.258Z,40.30
2018-05-13T17:57:56.822Z,40.40
2018-05-13T18:00:24.921Z,40.90
2018-05-13T18:02:52.437Z,40.60
2018-05-13T18:05:19.946Z,40.70
2018-05-13T18:07:47.459Z,40.90
2018-05-13T18:10:14.984Z,40.90
2018-05-13T18:12:42.501Z,41.60
2018-05-13T18:15:10.047Z,42.00
2018-05-13T18:17:37.593Z,41.40
2018-05-13T18:20:05.103Z,42.40
2018-05-13T18:22:32.671Z,42.50
2018-05-13T18:25:00.953Z,42.50
2018-05-13T18:27:29.225Z,42.60
2018-05-13T18:29:57.517Z,42.60
2018-05-13T18:32:24.999Z,42.60
2018-05-13T18:34:52.519Z,42.60
2018-05-13T18:37:20.769Z,42.60
2018-05-13T18:39:48.284Z,42.60
2018-05-13T18:42:15.767Z,42.60
2018-05-13T18:44:43.243Z,42.60
2018-05-13T18:47:10.752Z,42.60
2018-05-13T18:49:38.305Z,42.60
2018-05-13T18:52:05.821Z,42.60
2018-05-13T18:54:33.868Z,42.60
2018-05-13T18:57:01.422Z,42.60
2018-05-13T18:59:28.935Z,42.60
2018-05-13T19:01:56.417Z,42.60
2018-05-13T19:04:23.919Z,42.60
2018-05-13T19:06:51.401Z,42.60
2018-05-13T19:09:19.743Z,42.60
2018-05-13T19:11:47.292Z,42.60
2018-05-13T19:14:14.825Z,42.60
2018-05-13T19:16:42.349Z,42.60
2018-05-13T19:19:10.640Z,43.30
2018-05-13T19:21:38.153Z,42.60
2018-05-13T19:24:05.646Z,43.30
2018-05-13T19:26:34.027Z,42.60
2018-05-13T19:29:01.527Z,42.60
2018-05-13T19:31:29.023Z,42.60
2018-05-13T19:33:57.287Z,42.70
2018-05-13T19:36:24.896Z,42.60
2018-05-13T19:38:52.407Z,42.60
2018-05-13T19:41:19.910Z,42.70
2018-05-13T19:43:47.474Z,42.60
2018-05-13T19:46:15.001Z,42.60
2018-05-13T19:48:43.333Z,42.60
2018-05-13T19:51:10.928Z,42.60
2018-05-13T19:53:39.213Z,42.60
2018-05-13T19:56:07.469Z,43.00
2018-05-13T19:58:35.003Z,43.10
2018-05-13T20:01:02.500Z,43.90
2018-05-13T20:03:30.938Z,43.60
2018-05-13T20:05:59.029Z,43.80
2018-05-13T20:08:26.541Z,43.80
2018-05-13T20:10:54.053Z,43.60
2018-05-13T20:13:22.325Z,45.00
2018-05-13T20:15:50.557Z,44.70
2018-05-13T20:18:18.109Z,44.20
2018-05-13T20:20:45.590Z,44.20
2018-05-13T20:23:24.983Z,45.00
2018-05-13T20:25:52.517Z,44.50
2018-05-13T20:28:20.768Z,44.80
2018-05-13T20:30:48.318Z,44.70
2018-05-13T20:33:15.802Z,44.80
2018-05-13T20:35:44.069Z,44.80
2018-05-13T20:38:11.590Z,44.80
2018-05-13T20:40:39.079Z,45.10
2018-05-13T20:43:06.722Z,45.30
2018-05-13T20:45:34.252Z,45.40
2018-05-13T20:48:01.779Z,45.20
2018-05-13T20:50:30.149Z,45.30
2018-05-13T20:52:58.392Z,45.50
2018-05-13T20:55:25.902Z,45.50
2018-05-13T20:57:53.482Z,45.40
2018-05-13T21:00:20.890Z,45.40
2018-05-13T21:02:49.166Z,45.90
2018-05-13T21:05:17.470Z,46.00
2018-05-13T21:07:44.921Z,46.00
2018-05-13T21:10:12.390Z,46.00
2018-05-13T21:12:39.918Z,45.90
2018-05-13T21:15:08.172Z,46.00
2018-05-13T21:17:36.434Z,46.00
2018-05-13T21:20:04.034Z,46.10
2018-05-13T21:22:32.296Z,46.20
2018-05-13T21:25:00.570Z,46.10
2018-05-13T21:27:29.322Z,46.20
2018-05-13T21:29:57.034Z,45.80
2018-05-13T21:32:25.324Z,45.50
2018-05-13T21:34:52.839Z,45.60
2018-05-13T21:37:20.356Z,45.80
2018-05-13T21:39:47.884Z,45.70
2018-05-13T21:42:16.190Z,45.70
2018-05-13T21:44:44.452Z,45.50
2018-05-13T21:47:12.004Z,45.40
2018-05-13T21:49:40.246Z,45.60
2018-05-13T21:52:07.747Z,45.60
2018-05-13T21:54:35.339Z,45.50
2018-05-13T21:57:02.744Z,45.50
2018-05-13T21:59:31.008Z,45.60
2018-05-13T22:01:58.674Z,45.70
2018-05-13T22:04:26.086Z,46.20
2018-05-13T22:06:53.597Z,46.00
2018-05-13T22:09:21.856Z,46.90
2018-05-13T22:11:49.374Z,46.90
2018-05-13T22:14:16.863Z,46.70
2018-05-13T22:16:44.381Z,47.40
2018-05-13T22:19:11.866Z,47.70
2018-05-13T22:21:39.416Z,47.70
2018-05-13T22:24:06.936Z,47.80
2018-05-13T22:26:35.304Z,47.80
2018-05-13T22:29:03.565Z,48.20
2018-05-13T22:31:31.152Z,48.20
2018-05-13T22:33:58.666Z,48.30
2018-05-13T22:36:26.190Z,48.10
2018-05-13T22:38:54.441Z,48.50
2018-05-13T22:41:22.726Z,48.50
2018-05-13T22:43:50.284Z,48.40
2018-05-13T22:46:17.818Z,48.40
2018-05-13T22:48:45.380Z,48.00
2018-05-13T22:51:12.958Z,47.70
2018-05-13T22:53:41.236Z,47.80
2018-05-13T22:56:08.762Z,47.80
2018-05-13T22:58:37.756Z,47.50
2018-05-13T23:01:05.268Z,47.50
2018-05-13T23:03:32.741Z,47.60
2018-05-13T23:06:00.266Z,47.30
2018-05-13T23:08:28.503Z,47.60
2018-05-13T23:10:56.356Z,47.70
2018-05-13T23:13:23.828Z,47.40
2018-05-13T23:15:51.329Z,46.90
2018-05-13T23:18:18.806Z,47.00
2018-05-13T23:20:46.323Z,46.70
2018-05-13T23:23:14.551Z,46.40
2018-05-13T23:25:42.137Z,46.40
2018-05-13T23:28:09.627Z,46.30
2018-05-13T23:30:37.890Z,46.50
2018-05-13T23:33:06.147Z,46.50
2018-05-13T23:35:33.635Z,46.50
2018-05-13T23:38:02.026Z,46.60
2018-05-13T23:40:29.567Z,46.60
2018-05-13T23:42:57.937Z,46.50
2018-05-13T23:45:26.197Z,46.60
2018-05-13T23:47:53.693Z,46.60
2018-05-13T23:50:21.239Z,46.60
2018-05-13T23:52:49.605Z,46.00
2018-05-13T23:55:17.093Z,46.00
2018-05-13T23:57:44.624Z,46.10
